首页
METAR-TAF:

METAR-TAF

机场 :

伏尔加格勒, 俄罗斯

纬度: 48-47N, 经度: 044-22E, 海拔: 145米

当前天气观测

该预报发布于16分钟前的08:30 UTC
风速6节,风向西转西北
温度 29°C
湿度 37%
气压 1014 hPa
能见度10公里或以上
1500米以下无云,无积雨云

METAR: URWW 140830Z 30003MPS CAVOK 29/13 Q1014 R24/010070 NOSIG

时间: 11:46 (08:46 UTC)

预报

该预报发布于46分钟前的08:00 UTC
预报有效从14日的 09点(UTC)到 14日的 18点(UTC)
风速10节,风向,有时为19节阵风
能见度10公里或以上
散云层高于4000英尺, 积雨云.
多云层高于10000英尺
短暂存在
从 14日的 09点(UTC)到 14日的 18点(UTC)
风速6节,风向西北,有时为16节阵风
几率 40% :
短暂存在
从 14日的 09点(UTC)到 14日的 18点(UTC)
雷暴, 小雨, 冰雹

TAF: URWW 140800Z 1409/1418 35005G10MPS 9999 SCT040CB BKN100 TEMPO 1409/1418 32003G08MPS PROB40 TEMPO 1409/1418 -TSRAGR

超过4000个机场的气象观测和天气预报(METAR&TAF报告)。

可查询的气象台以黄色和红色小点在地图上表示。

将鼠标移到小点上方,可查看气象台名称。

然后点击查看天气观测和预报。

如需切换地图:点击带黑十字的绿色按钮放大地图;点击带横线的绿色按钮缩小地图;或者点击绿色箭头查看邻近地区的地图。


METAR-TAF: